Time;durP1;ratioP1;P1;durP2;ratioP2;P2;SDS_P1;SDS_P2;PMS_P1;PMS_P2;Temp;Humidity;BMP_temperature;BMP_pressure;BME280_temperature;BME280_humidity;BME280_pressure;Samples;Min_cycle;Max_cycle;Signal;HPM_P1;HPM_P2
2022/02/20 00:01:10;;;;;;;1.08;0.70;;;2.30;99.90;;;;;;5070532;28;20492;-59
2022/02/20 00:03:35;;;;;;;1.95;0.50;;;2.30;99.90;;;;;;5078609;28;20051;-61
2022/02/20 00:06:03;;;;;;;1.88;0.60;;;2.30;99.90;;;;;;5074746;28;20821;-61
2022/02/20 00:08:29;;;;;;;1.00;0.50;;;2.30;99.90;;;;;;5079119;28;20433;-62
2022/02/20 00:10:55;;;;;;;2.17;0.82;;;2.30;99.90;;;;;;5072738;28;20066;-61
2022/02/20 00:13:21;;;;;;;1.38;0.50;;;2.30;99.90;;;;;;5078541;28;20060;-61
2022/02/20 00:15:47;;;;;;;1.90;0.52;;;2.30;99.90;;;;;;5070506;28;20167;-61
2022/02/20 00:18:12;;;;;;;0.93;0.40;;;2.30;99.90;;;;;;5061953;28;20055;-62
2022/02/20 00:20:38;;;;;;;3.10;0.65;;;2.30;99.90;;;;;;5059292;28;20116;-61
2022/02/20 00:23:04;;;;;;;1.40;0.77;;;2.20;99.90;;;;;;5064364;28;20024;-61
2022/02/20 00:25:34;;;;;;;1.17;0.70;;;2.20;99.90;;;;;;5057193;28;20080;-61
2022/02/20 00:28:02;;;;;;;1.15;0.50;;;2.20;99.90;;;;;;5062186;28;20044;-61
2022/02/20 00:30:28;;;;;;;2.03;0.45;;;2.30;99.90;;;;;;5055093;28;20045;-61
2022/02/20 00:32:58;;;;;;;4.05;0.82;;;2.20;99.90;;;;;;5065795;28;20059;-61
2022/02/20 00:35:26;;;;;;;1.67;0.50;;;;;;;;;;5058344;28;20119;-61
2022/02/20 00:37:52;;;;;;;2.10;0.38;;;;;;;;;;5062172;28;20036;-61
2022/02/20 00:40:18;;;;;;;1.20;0.50;;;;;;;;;;5055751;28;20029;-61
2022/02/20 00:42:44;;;;;;;0.40;0.22;;;;;;;;;;5059868;28;20033;-62
2022/02/20 00:45:11;;;;;;;1.23;0.40;;;;;;;;;;5052729;28;20049;-61
2022/02/20 00:47:36;;;;;;;0.95;0.20;;;;;;;;;;5059302;28;20041;-62
2022/02/20 00:50:03;;;;;;;0.20;0.20;;;;;;;;;;5054992;28;20474;-61
2022/02/20 00:52:29;;;;;;;0.38;0.30;;;;;;;;;;5059038;28;20091;-61
2022/02/20 00:54:55;;;;;;;1.15;0.35;;;;;;;;;;5056503;28;20044;-61
2022/02/20 00:57:21;;;;;;;4.68;0.77;;;;;;;;;;5055684;28;20127;-62
2022/02/20 00:59:47;;;;;;;3.97;0.68;;;;;;;;;;5056407;28;20040;-62
2022/02/20 01:02:14;;;;;;;3.30;0.80;;;;;;;;;;5056907;28;20041;-62
2022/02/20 01:04:40;;;;;;;6.40;1.20;;;;;;;;;;5065575;28;20041;-60
2022/02/20 01:07:06;;;;;;;5.05;1.60;;;;;;;;;;5065863;28;20040;-62
2022/02/20 01:09:32;;;;;;;6.93;1.60;;;;;;;;;;5066055;28;20636;-62
2022/02/20 01:11:58;;;;;;;4.40;1.65;;;;;;;;;;5062891;28;20035;-61
2022/02/20 01:14:24;;;;;;;12.65;2.05;;;;;;;;;;5074273;28;20044;-60
2022/02/20 01:16:50;;;;;;;6.32;2.20;;;;;;;;;;5064630;28;20092;-59
2022/02/20 01:19:16;;;;;;;12.82;2.60;;;;;;;;;;5083771;28;20032;-62
2022/02/20 01:21:42;;;;;;;10.27;2.83;;;;;;;;;;5066184;28;20492;-62
2022/02/20 01:24:08;;;;;;;9.23;2.90;;;;;;;;;;5077018;28;20151;-62
2022/02/20 01:26:34;;;;;;;15.75;3.28;;;;;;;;;;5060866;28;20089;-61
2022/02/20 01:29:00;;;;;;;7.97;2.60;;;;;;;;;;5074937;28;20032;-61
2022/02/20 01:31:26;;;;;;;12.07;3.63;;;;;;;;;;5065863;28;20044;-62
2022/02/20 01:33:52;;;;;;;11.93;3.33;;;;;;;;;;5075779;28;20032;-62
2022/02/20 01:36:18;;;;;;;11.85;2.83;;;;;;;;;;5063699;28;20040;-62
2022/02/20 01:38:44;;;;;;;13.85;3.92;;;;;;;;;;5069732;28;20036;-61
2022/02/20 01:41:10;;;;;;;8.48;3.17;;;;;;;;;;5077413;28;20056;-62
2022/02/20 01:43:36;;;;;;;13.48;3.70;;;;;;;;;;5074054;28;20038;-61
2022/02/20 01:46:02;;;;;;;11.13;3.45;;;;;;;;;;5068151;28;20151;-61
2022/02/20 01:48:35;;;;;;;10.20;3.85;;;;;;;;;;5074802;28;20123;-61
2022/02/20 01:51:01;;;;;;;12.82;4.63;;;;;;;;;;5070740;28;20033;-62
2022/02/20 01:53:27;;;;;;;12.10;4.10;;;;;;;;;;5074252;28;20036;-62
2022/02/20 01:55:53;;;;;;;10.82;4.53;;;;;;;;;;5064672;28;20549;-62
2022/02/20 01:58:19;;;;;;;12.85;4.55;;;;;;;;;;5072019;28;20067;-62
2022/02/20 02:00:48;;;;;;;20.45;5.28;;;;;;;;;;5070453;28;20044;-62
2022/02/20 02:03:16;;;;;;;10.98;4.38;;;;;;;;;;5074658;28;20032;-61
2022/02/20 02:05:42;;;;;;;10.93;4.47;;;;;;;;;;5062880;28;20048;-59
2022/02/20 02:08:08;;;;;;;13.05;4.72;;;;;;;;;;5064523;28;20121;-59
2022/02/20 02:10:34;;;;;;;16.92;5.47;;;;;;;;;;5067046;28;20058;-61
2022/02/20 02:13:00;;;;;;;12.25;4.75;;;;;;;;;;5068080;28;20036;-60
2022/02/20 02:15:26;;;;;;;13.50;4.53;;;;;;;;;;5069659;28;20710;-61
2022/02/20 02:17:52;;;;;;;10.32;4.60;;;;;;;;;;5070011;28;20124;-61
2022/02/20 02:20:18;;;;;;;10.93;4.97;;;;;;;;;;5073026;28;20036;-61
2022/02/20 02:22:44;;;;;;;12.60;4.70;;;;;;;;;;5069133;28;20035;-61
2022/02/20 02:25:10;;;;;;;11.23;4.45;;;;;;;;;;5070727;28;20554;-61
2022/02/20 02:27:37;;;;;;;8.32;4.13;;;;;;;;;;5065121;28;20562;-61
2022/02/20 02:30:05;;;;;;;11.52;4.75;;;;;;;;;;5075622;28;20516;-62
2022/02/20 02:32:31;;;;;;;17.30;5.18;;;;;;;;;;5067228;28;20451;-61
2022/02/20 02:34:57;;;;;;;10.15;4.50;;;;;;;;;;5075627;28;20029;-61
2022/02/20 02:37:23;;;;;;;14.45;4.85;;;;;;;;;;5066936;28;20046;-62
2022/02/20 02:39:49;;;;;;;13.32;5.68;;;;;;;;;;5073545;28;20044;-61
2022/02/20 02:42:15;;;;;;;16.40;4.50;;;;;;;;;;5070847;28;20094;-61
2022/02/20 02:44:42;;;;;;;13.75;5.85;;;;;;;;;;5065015;28;20509;-62
2022/02/20 02:47:08;;;;;;;15.85;5.18;;;;;;;;;;5063600;28;20538;-61
2022/02/20 02:49:34;;;;;;;12.13;5.00;;;;;;;;;;5075312;28;20040;-60
2022/02/20 02:52:01;;;;;;;10.25;4.78;;;;;;;;;;5060121;28;20028;-61
2022/02/20 02:54:27;;;;;;;11.85;5.82;;;;;;;;;;5074817;28;20133;-59
2022/02/20 02:56:53;;;;;;;12.77;5.63;;;;;;;;;;5064221;28;20496;-60
2022/02/20 02:59:19;;;;;;;14.48;5.28;;;;;;;;;;5078031;28;20036;-61
2022/02/20 03:01:45;;;;;;;8.20;4.57;;;;;;;;;;5064550;28;20037;-62
2022/02/20 03:04:11;;;;;;;14.60;5.25;;;;;;;;;;5075602;28;20127;-61
2022/02/20 03:06:37;;;;;;;10.30;4.47;;;;;;;;;;5063065;28;20044;-61
2022/02/20 03:09:04;;;;;;;13.02;4.45;;;;;;;;;;5068519;28;20036;-62
2022/02/20 03:11:31;;;;;;;10.02;3.70;;;;;;;;;;5065043;28;20082;-61
2022/02/20 03:13:57;;;;;;;16.00;4.25;;;;;;;;;;5074313;28;20035;-61
2022/02/20 03:16:23;;;;;;;11.25;5.18;;;;;;;;;;5062087;28;20044;-62
2022/02/20 03:18:49;;;;;;;11.65;4.15;;;;;;;;;;5074919;28;20097;-61
2022/02/20 03:21:15;;;;;;;14.88;4.70;;;;;;;;;;5067031;28;20702;-61
2022/02/20 03:23:41;;;;;;;13.52;4.72;;;;;;;;;;5071786;28;20044;-61
2022/02/20 03:26:07;;;;;;;7.45;4.03;;;;;;;;;;5065576;28;20068;-58
2022/02/20 03:28:33;;;;;;;13.73;4.10;;;;;;;;;;5073517;28;20040;-60
2022/02/20 03:30:59;;;;;;;12.80;4.18;;;;;;;;;;5063183;28;20029;-61
2022/02/20 03:33:25;;;;;;;11.45;4.07;;;;;;;;;;5066859;28;20185;-58
2022/02/20 03:35:52;;;;;;;12.43;4.00;;;;;;;;;;5061107;28;20078;-60
2022/02/20 03:38:18;;;;;;;8.18;3.42;;;;;;;;;;5065462;28;20036;-60
2022/02/20 03:40:44;;;;;;;7.45;3.72;;;;;;;;;;5069520;28;20043;-61
2022/02/20 03:43:10;;;;;;;21.67;3.75;;;;;;;;;;5071821;28;20035;-61
2022/02/20 03:45:36;;;;;;;16.55;4.63;;;;;;;;;;5064898;28;20060;-61
2022/02/20 03:48:02;;;;;;;10.70;3.53;;;;;;;;;;5067834;28;20572;-61
2022/02/20 03:50:28;;;;;;;14.82;4.00;;;;;;;;;;5085416;28;20032;-61
2022/02/20 03:52:54;;;;;;;7.38;3.42;;;;;;;;;;5065907;28;20575;-62
2022/02/20 03:55:20;;;;;;;15.60;4.20;;;;;;;;;;5075008;28;20036;-61
2022/02/20 03:57:46;;;;;;;16.30;4.28;;;;;;;;;;5070941;28;20025;-61
2022/02/20 04:00:14;;;;;;;10.10;3.25;;;;;;;;;;5076649;28;20035;-61
2022/02/20 04:02:41;;;;;;;12.32;3.35;;;;;;;;;;5070322;28;20029;-61
2022/02/20 04:05:08;;;;;;;12.73;4.30;;;;;;;;;;5076525;28;20040;-61
2022/02/20 04:07:34;;;;;;;15.20;3.80;;;;;;;;;;5068740;28;20036;-60
2022/02/20 04:10:00;;;;;;;11.35;3.95;;;;;;;;;;5072584;28;20036;-61
2022/02/20 04:12:26;;;;;;;12.43;3.55;;;;;;;;;;5067970;28;20654;-62
2022/02/20 04:14:53;;;;;;;10.50;3.70;;;;;;;;;;5063428;28;20047;-62
2022/02/20 04:17:21;;;;;;;9.63;3.55;;;;;;;;;;5067510;28;20066;-62
2022/02/20 04:19:48;;;;;;;12.18;4.22;;;;;;;;;;5078089;28;20094;-61
2022/02/20 04:22:14;;;;;;;14.52;3.80;;;;;;;;;;5069611;28;20032;-59
2022/02/20 04:24:40;;;;;;;12.43;3.53;;;;;;;;;;5075586;28;20102;-61
2022/02/20 04:27:07;;;;;;;9.77;3.70;;;;;;;;;;5064448;28;20139;-61
2022/02/20 04:29:33;;;;;;;12.32;4.00;;;;;;;;;;5075697;28;20715;-60
2022/02/20 04:31:59;;;;;;;7.68;3.80;;;;;;;;;;5066379;28;20087;-61
2022/02/20 04:34:25;;;;;;;8.32;3.90;;;;;;;;;;5077486;28;20036;-62
2022/02/20 04:36:52;;;;;;;11.25;4.22;;;;;;;;;;5063876;28;20074;-58
2022/02/20 04:39:18;;;;;;;8.32;3.47;;;;;;;;;;5073086;28;20059;-59
2022/02/20 04:41:44;;;;;;;14.32;4.10;;;;;;;;;;5067322;28;20064;-60
2022/02/20 04:44:11;;;;;;;10.70;3.55;;;;;;;;;;5075861;28;20040;-62
2022/02/20 04:46:37;;;;;;;10.60;3.97;;;;;;;;;;5062127;28;20049;-61
2022/02/20 04:49:04;;;;;;;9.63;3.72;;;;;;;;;;5075707;28;20135;-61
2022/02/20 04:51:32;;;;;;;12.45;3.50;;;;;;;;;;5058426;28;20041;-61
2022/02/20 04:53:58;;;;;;;8.20;4.07;;;;;;;;;;5076484;28;20134;-60
2022/02/20 04:56:24;;;;;;;11.15;3.80;;;;;;;;;;5083589;28;20595;-60
2022/02/20 04:58:50;;;;;;;7.95;3.78;;;;;;;;;;5077524;28;20021;-61
2022/02/20 05:01:17;;;;;;;8.05;3.78;;;;;;;;;;5069233;28;20094;-60
2022/02/20 05:03:43;;;;;;;11.52;4.20;;;;;;;;;;5073970;28;20123;-61
2022/02/20 05:06:09;;;;;;;8.27;3.78;;;;;;;;;;5064011;28;21340;-61
2022/02/20 05:08:35;;;;;;;8.52;3.85;;;;;;;;;;5066125;28;20032;-61
2022/02/20 05:11:01;;;;;;;8.32;3.85;;;;;;;;;;5065728;28;20028;-61
2022/02/20 05:13:27;;;;;;;12.93;3.92;;;;;;;;;;5075983;28;20071;-61
2022/02/20 05:15:53;;;;;;;8.73;3.67;;;;;;;;;;5066723;28;20398;-62
2022/02/20 05:18:19;;;;;;;10.82;3.90;;;;;;;;;;5076393;28;20042;-61
2022/02/20 05:20:47;;;;;;;11.23;4.10;;;;;;;;;;5070546;28;20048;-61
2022/02/20 05:23:13;;;;;;;10.45;4.03;;;;;;;;;;5074818;28;20039;-60
2022/02/20 05:25:42;;;;;;;7.70;3.72;;;;;;;;;;5080163;28;20040;-61
2022/02/20 05:28:08;;;;;;;19.45;4.65;;;;;;;;;;5074306;28;20031;-57
2022/02/20 05:30:34;;;;;;;8.02;4.30;;;;;;;;;;5071559;28;20116;-58
2022/02/20 05:33:00;;;;;;;9.50;4.88;;;;;;;;;;5073071;28;20032;-60
2022/02/20 05:35:26;;;;;;;12.95;5.50;;;;;;;;;;5067805;28;20167;-62
2022/02/20 05:37:52;;;;;;;16.35;4.75;;;;;;;;;;5065543;28;20031;-61
2022/02/20 05:40:21;;;;;;;12.60;5.80;;;;;;;;;;5065246;28;20036;-60
2022/02/20 05:42:47;;;;;;;9.55;4.57;;;;;;;;;;5070697;28;20037;-61
2022/02/20 05:45:13;;;;;;;9.13;4.88;;;;;;;;;;5073302;28;20032;-60
2022/02/20 05:47:39;;;;;;;10.38;4.82;;;;;;;;;;5068329;28;20123;-61
2022/02/20 05:50:06;;;;;;;11.05;5.32;;;;;;;;;;5062722;28;20508;-61
2022/02/20 05:52:33;;;;;;;12.15;5.18;;;;;;;;;;5068418;28;20122;-61
2022/02/20 05:54:58;;;;;;;11.55;5.53;;;;;;;;;;5060189;28;20055;-61
2022/02/20 05:57:24;;;;;;;14.50;4.72;;;;;;;;;;5063705;28;20036;-60
2022/02/20 05:59:51;;;;;;;9.77;4.97;;;;;;;;;;5073180;28;20089;-61
2022/02/20 06:02:17;;;;;;;17.40;5.88;;;;;;;;;;5063999;28;20045;-61
2022/02/20 06:04:43;;;;;;;13.15;5.22;;;;;;;;;;5065485;28;20385;-60
2022/02/20 06:07:10;;;;;;;15.57;5.95;;;;;;;;;;5059762;28;20036;-60
2022/02/20 06:09:36;;;;;;;21.92;6.78;;;;;;;;;;5065074;28;20048;-61
2022/02/20 06:12:02;;;;;;;15.00;7.05;;;;;;;;;;5065880;28;20043;-62
2022/02/20 06:14:28;;;;;;;16.67;6.32;;;;;;;;;;5093243;28;20036;-60
2022/02/20 06:16:54;;;;;;;13.30;5.93;;;;;;;;;;5064936;28;20039;-60
2022/02/20 06:19:20;;;;;;;14.85;6.75;;;;;;;;;;5077751;28;20112;-62
2022/02/20 06:21:46;;;;;;;18.80;6.55;;;;;;;;;;5065436;28;20047;-63
2022/02/20 06:24:12;;;;;;;21.48;7.43;;;;;;;;;;5076781;28;20411;-62
2022/02/20 06:26:39;;;;;;;21.30;7.63;;;;;;;;;;5081679;28;20556;-62
2022/02/20 06:29:05;;;;;;;20.35;7.63;;;;;;;;;;5079153;28;20067;-62
2022/02/20 06:31:31;;;;;;;23.45;7.80;;;;;;;;;;5066666;28;20614;-61
2022/02/20 06:33:57;;;;;;;27.67;7.97;;;;;;;;;;5073304;28;20032;-67
2022/02/20 06:36:23;;;;;;;19.27;7.75;;;;;;;;;;5066692;28;20034;-64
2022/02/20 06:38:49;;;;;;;20.27;6.88;;;;;;;;;;5071248;28;20045;-64
2022/02/20 06:41:15;;;;;;;23.73;7.75;;;;;;;;;;5072644;28;20131;-64
2022/02/20 06:43:41;;;;;;;22.63;7.70;;;;;;;;;;5067702;28;20542;-63
2022/02/20 06:46:08;;;;;;;23.05;8.55;;;;;;;;;;5065551;28;20032;-62
2022/02/20 06:48:34;;;;;;;17.80;7.78;;;;;;;;;;5073042;28;20512;-64
2022/02/20 06:51:00;;;;;;;24.98;7.40;;;;;;;;;;5070454;28;20036;-67
2022/02/20 06:53:26;;;;;;;25.67;6.57;;;;;;;;;;5074633;28;20044;-62
2022/02/20 06:55:52;;;;;;;21.20;6.55;;;;;;;;;;5069006;28;20037;-61
2022/02/20 06:58:18;;;;;;;26.58;7.07;;;;;;;;;;5075169;28;20092;-63
2022/02/20 07:00:44;;;;;;;22.20;6.63;;;;;;;;;;5070361;28;20399;-61
2022/02/20 07:03:10;;;;;;;15.88;6.50;;;;;;;;;;5071886;28;20046;-63
2022/02/20 07:05:36;;;;;;;15.88;6.90;;;;;;;;;;5068135;28;20119;-61
2022/02/20 07:08:02;;;;;;;21.80;6.22;;;;;;;;;;5066477;28;20028;-63
2022/02/20 07:10:28;;;;;;;23.35;7.38;;;;;;;;;;5067312;28;20040;-63
2022/02/20 07:12:54;;;;;;;18.08;5.65;;;;;;;;;;5071416;28;20118;-63
2022/02/20 07:15:20;;;;;;;12.77;5.72;;;;;;;;;;5068088;28;20071;-64
2022/02/20 07:17:46;;;;;;;17.45;5.50;;;;;;;;;;5070249;28;20385;-64
2022/02/20 07:20:12;;;;;;;15.90;4.72;;;;;;;;;;5070667;28;20090;-64
2022/02/20 07:22:39;;;;;;;11.57;4.68;;;;;;;;;;5068363;28;20033;-64
2022/02/20 07:25:05;;;;;;;10.50;4.60;;;;;;;;;;5072560;28;20040;-62
2022/02/20 07:27:41;;;;;;;17.98;5.07;;;;;;;;;;5068893;28;20453;-61
2022/02/20 07:30:08;;;;;;;8.35;4.28;;;;;;;;;;5071727;28;20085;-64
2022/02/20 07:32:34;;;;;;;15.40;5.20;;;;;;;;;;5072513;28;20067;-61
2022/02/20 07:35:01;;;;;;;17.05;4.70;;;;;;;;;;5075714;28;20063;-62
2022/02/20 07:37:29;;;;;;;11.18;4.50;;;;;;;;;;5064992;28;20045;-63
2022/02/20 07:39:56;;;;;;;17.92;5.78;;;;;;;;;;5068416;28;20033;-58
2022/02/20 07:42:22;;;;;;;13.98;4.65;;;;;;;;;;5066821;28;20067;-61
2022/02/20 07:44:48;;;;;;;15.73;4.93;;;;;;;;;;5065043;28;20064;-61
2022/02/20 07:47:14;;;;;;;10.63;3.92;;;;;;;;;;5069076;28;20036;-60
2022/02/20 07:49:40;;;;;;;9.57;3.50;;;;;;;;;;5067543;28;20657;-62
2022/02/20 07:52:06;;;;;;;12.40;3.75;;;;;;;;;;5064970;28;20046;-62
2022/02/20 07:54:32;;;;;;;7.47;3.60;;;;;;;;;;5066108;28;20052;-62
2022/02/20 07:56:59;;;;;;;9.55;2.90;;;;;;;;;;5062578;28;20663;-61
2022/02/20 07:59:26;;;;;;;12.50;2.72;;;;;;;;;;5073033;28;20093;-63
2022/02/20 08:01:52;;;;;;;8.80;3.03;;;;;;;;;;5071580;28;20042;-61
2022/02/20 08:04:18;;;;;;;5.18;2.47;;;;;;;;;;5072846;28;20029;-59
2022/02/20 08:06:44;;;;;;;9.77;2.45;;;;;;;;;;5064607;28;20032;-62
2022/02/20 08:09:10;;;;;;;11.60;2.03;;;;;;;;;;5074739;28;20400;-60
2022/02/20 08:11:36;;;;;;;8.68;2.38;;;;;;;;;;5066712;28;20036;-62
2022/02/20 08:14:03;;;;;;;4.85;2.00;;;;;;;;;;5075809;28;20059;-62
2022/02/20 08:16:29;;;;;;;10.15;2.25;;;;;;;;;;5062429;28;20044;-62
2022/02/20 08:18:55;;;;;;;6.85;1.70;;;;;;;;;;5076458;28;20451;-62
2022/02/20 08:21:21;;;;;;;6.00;1.40;;;;;;;;;;5068959;28;20127;-62
2022/02/20 08:23:48;;;;;;;3.70;1.40;;;;;;;;;;5074065;28;20100;-62
2022/02/20 08:26:15;;;;;;;3.70;1.17;;;;;;;;;;5068745;28;20074;-60
2022/02/20 08:28:41;;;;;;;8.02;1.63;;;;;;;;;;5075666;28;20039;-62
2022/02/20 08:31:07;;;;;;;2.75;1.20;;;;;;;;;;5070258;28;20071;-62
2022/02/20 08:33:33;;;;;;;3.88;0.88;;;;;;;;;;5065438;28;20064;-61
2022/02/20 08:35:59;;;;;;;2.85;0.75;;;;;;;;;;5068475;28;20044;-62
2022/02/20 08:38:25;;;;;;;5.10;1.02;;;;;;;;;;5065550;28;20588;-61
2022/02/20 08:40:52;;;;;;;3.08;0.80;;;;;;;;;;5065649;28;20032;-61
2022/02/20 08:43:20;;;;;;;2.13;1.10;;;;;;;;;;5074926;28;20047;-62
2022/02/20 08:45:48;;;;;;;2.75;0.90;;;;;;;;;;5070056;28;20044;-62
2022/02/20 08:48:14;;;;;;;1.52;0.60;;;;;;;;;;5073655;28;20122;-62
2022/02/20 08:50:42;;;;;;;1.25;0.65;;;;;;;;;;5065617;28;20124;-62
2022/02/20 08:53:07;;;;;;;1.67;0.60;;;;;;;;;;5063273;28;20396;-62
2022/02/20 08:55:34;;;;;;;1.67;0.50;;;;;;;;;;5067956;28;20040;-62
2022/02/20 08:57:59;;;;;;;0.95;0.45;;;;;;;;;;5072104;28;20032;-62
2022/02/20 09:00:25;;;;;;;1.95;0.50;;;;;;;;;;5072270;28;20059;-62
2022/02/20 09:02:51;;;;;;;1.15;0.45;;;;;;;;;;5071305;28;20035;-61
2022/02/20 09:05:17;;;;;;;2.95;0.60;;;;;;;;;;5066463;28;20058;-61
2022/02/20 09:07:44;;;;;;;1.75;0.60;;;;;;;;;;5063158;28;20044;-60
2022/02/20 09:10:10;;;;;;;2.47;0.70;;;;;;;;;;5065025;28;20090;-61
2022/02/20 09:12:36;;;;;;;3.80;0.60;;;;;;;;;;5068840;28;20047;-62
2022/02/20 09:15:03;;;;;;;2.08;0.40;;;;;;;;;;5072614;28;20036;-62
2022/02/20 09:17:30;;;;;;;3.08;0.60;;;;;;;;;;5064234;28;20039;-62
2022/02/20 09:19:56;;;;;;;0.70;0.30;;;;;;;;;;5077098;28;20123;-62
2022/02/20 09:22:22;;;;;;;1.50;0.80;;;;;;;;;;5068318;28;20040;-61
2022/02/20 09:24:48;;;;;;;2.00;0.40;;;;;;;;;;5076564;28;20044;-61
2022/02/20 09:27:14;;;;;;;1.75;0.47;;;;;;;;;;5065849;28;20028;-61
2022/02/20 09:29:40;;;;;;;1.05;0.45;;;;;;;;;;5077059;28;20040;-62
2022/02/20 09:32:07;;;;;;;1.50;0.52;;;;;;;;;;5066473;28;20463;-62
2022/02/20 09:34:33;;;;;;;2.70;0.50;;;;;;;;;;5069356;28;20051;-60
2022/02/20 09:36:59;;;;;;;3.53;0.50;;;;;;;;;;5063891;28;20045;-62
2022/02/20 09:39:25;;;;;;;0.98;0.30;;;;;;;;;;5064382;28;20036;-62
2022/02/20 09:41:51;;;;;;;4.22;0.43;;;;;;;;;;5064066;22;20041;-62
2022/02/20 09:44:17;;;;;;;0.65;0.20;;;;;;;;;;5063763;28;20044;-61
2022/02/20 09:46:43;;;;;;;0.82;0.52;;;;;;;;;;5054853;28;20036;-62
2022/02/20 09:49:09;;;;;;;0.45;0.35;;;;;;;;;;5064060;28;20577;-62
2022/02/20 09:51:36;;;;;;;2.58;0.40;;;;;;;;;;5058646;28;20039;-62
2022/02/20 09:54:02;;;;;;;1.95;0.40;;;;;;;;;;5034608;28;20059;-62
2022/02/20 09:56:29;;;;;;;2.97;0.40;;;;;;;;;;5049068;28;20139;-62
2022/02/20 09:58:55;;;;;;;2.88;0.63;;;;;;;;;;5057478;28;20052;-62
2022/02/20 10:01:22;;;;;;;1.73;0.28;;;;;;;;;;5054029;28;20050;-59
2022/02/20 10:03:49;;;;;;;0.77;0.40;;;;;;;;;;5060819;28;20067;-62
2022/02/20 10:06:18;;;;;;;1.20;0.40;;;;;;;;;;5061289;28;20033;-62
2022/02/20 10:08:45;;;;;;;2.17;0.40;;;;;;;;;;5041458;28;20041;-62
2022/02/20 10:11:14;;;;;;;1.23;0.40;;;;;;;;;;5054917;28;20036;-62
2022/02/20 10:13:40;;;;;;;2.63;0.40;;;;;;;;;;5060820;28;20033;-62
2022/02/20 10:16:26;;;;;;;3.03;0.47;;;;;;;;;;5052626;28;20046;-62
2022/02/20 10:18:53;;;;;;;1.92;0.30;;;;;;;;;;5059694;28;20051;-62
2022/02/20 10:21:23;;;;;;;0.90;0.50;;;;;;;;;;5051447;28;20532;-62
2022/02/20 10:23:50;;;;;;;1.00;0.50;;;;;;;;;;5058277;28;20067;-62
2022/02/20 10:26:20;;;;;;;1.02;0.47;;;;;;;;;;5050705;28;20041;-62
2022/02/20 10:29:04;;;;;;;0.35;0.30;;;;;;;;;;5055513;28;20853;-62
2022/02/20 10:31:41;;;;;;;0.88;0.40;;;;;;;;;;5044170;28;20412;-60
2022/02/20 10:34:08;;;;;;;0.85;0.30;;;;;;;;;;5061745;28;20029;-62
2022/02/20 10:36:53;;;;;;;0.28;0.25;;;;;;;;;;5045312;28;20124;-62
2022/02/20 10:39:30;;;;;;;1.85;0.50;;;;;;;;;;5062942;28;20040;-62
2022/02/20 10:41:57;;;;;;;0.40;0.30;;;;;;;;;;5059025;28;20066;-62
2022/02/20 10:44:23;;;;;;;0.52;0.40;;;;;;;;;;5054316;28;20036;-62
2022/02/20 10:46:51;;;;;;;2.38;0.45;;;;;;;;;;5051001;28;20128;-62
2022/02/20 10:49:27;;;;;;;0.95;0.55;;;;;;;;;;5056892;28;20036;-62
2022/02/20 10:51:54;;;;;;;0.40;0.35;;;;;;;;;;5056187;28;20062;-60
2022/02/20 10:54:20;;;;;;;0.95;0.55;;;;;;;;;;5056858;28;20039;-62
2022/02/20 10:56:47;;;;;;;0.70;0.40;;;;;;;;;;5052804;28;20041;-61
2022/02/20 10:59:14;;;;;;;0.60;0.30;;;;;;;;;;5059012;28;20044;-62
2022/02/20 11:01:40;;;;;;;1.05;0.43;;;;;;;;;;5051846;28;20041;-62
2022/02/20 11:04:10;;;;;;;1.13;0.50;;;;;;;;;;5042742;28;20028;-63
2022/02/20 11:06:40;;;;;;;1.00;0.30;;;;;;;;;;5052904;28;20033;-62
2022/02/20 11:09:06;;;;;;;1.27;0.30;;;;;;;;;;5041257;28;20098;-61
2022/02/20 11:11:37;;;;;;;0.75;0.30;;;;;;;;;;5052486;28;20442;-62
2022/02/20 11:14:08;;;;;;;2.28;0.38;;;;;;;;;;5055145;28;20056;-61
2022/02/20 11:16:34;;;;;;;0.65;0.40;;;;;;;;;;5061294;28;20048;-62
2022/02/20 11:19:02;;;;;;;0.15;0.15;;;;;;;;;;5061892;28;20090;-62
2022/02/20 11:21:31;;;;;;;4.07;0.57;;;;;;;;;;5054351;28;20152;-58
2022/02/20 11:24:00;;;;;;;0.77;0.38;;;;;;;;;;5060904;28;20045;-61
2022/02/20 11:26:27;;;;;;;0.90;0.30;;;;;;;;;;5053008;28;20037;-62
2022/02/20 11:28:54;;;;;;;0.43;0.20;;;;;;;;;;5062911;28;20036;-62
2022/02/20 11:31:20;;;;;;;0.40;0.20;;;;;;;;;;5054907;28;20041;-64
2022/02/20 11:33:51;;;;;;;2.47;0.30;;;;;;;;;;5061265;28;20557;-64
2022/02/20 11:36:21;;;;;;;1.20;0.30;;;;;;;;;;5055011;28;20098;-63
2022/02/20 11:39:05;;;;;;;0.98;0.32;;;;;;;;;;5059049;28;20044;-65
2022/02/20 11:41:32;;;;;;;1.10;0.45;;;;;;;;;;5043097;28;20039;-62
2022/02/20 11:44:10;;;;;;;2.20;0.50;;;;;;;;;;5058244;28;20076;-63
2022/02/20 11:46:46;;;;;;;0.30;0.22;;;;;;;;;;5055167;28;20043;-63
2022/02/20 11:49:28;;;;;;;0.85;0.20;;;;;;;;;;5059833;28;20040;-63
2022/02/20 11:52:02;;;;;;;0.47;0.30;;;;;;;;;;5053452;28;20040;-62
2022/02/20 11:54:28;;;;;;;1.55;0.52;;;;;;;;;;5057749;28;20045;-62
2022/02/20 11:57:15;;;;;;;0.38;0.25;;;;;;;;;;5062370;28;20040;-62
2022/02/20 11:59:41;;;;;;;3.05;0.50;;;;;;;;;;5061888;28;20041;-61
2022/02/20 12:02:08;;;;;;;3.50;0.50;;;;;;;;;;5058997;28;20044;-62
2022/02/20 12:04:55;;;;;;;2.60;0.73;;;;;;;;;;5056711;28;20503;-60
2022/02/20 12:07:27;;;;;;;2.60;0.50;;;;;;;;;;5054133;28;20163;-60
2022/02/20 12:10:13;;;;;;;0.30;0.30;;;;;;;;;;5054284;28;20124;-61
2022/02/20 12:12:39;;;;;;;1.00;0.40;;;;;;;;;;5059461;28;20036;-61
2022/02/20 12:15:05;;;;;;;;;;;;;;;;;;5061346;28;20742;-60
2022/02/20 12:17:31;;;;;;;0.98;0.43;;;;;;;;;;5064643;28;19921;-60
2022/02/20 12:19:58;;;;;;;1.40;0.30;;;;;;;;;;5057802;28;20493;-60
2022/02/20 12:22:26;;;;;;;2.38;0.40;;;;;;;;;;5062120;28;20131;-61
2022/02/20 12:25:01;;;;;;;0.90;0.32;;;;;;;;;;5057705;28;20481;-61
2022/02/20 12:27:29;;;;;;;1.38;0.55;;;;;;;;;;5058507;28;20052;-61
2022/02/20 12:30:05;;;;;;;0.45;0.30;;;;;;;;;;5064541;28;20063;-62
2022/02/20 12:32:32;;;;;;;2.25;0.40;;;;;;;;;;5063213;28;20053;-60
2022/02/20 12:35:15;;;;;;;1.63;0.70;;;;;;;;;;5063175;28;20040;-61
2022/02/20 12:37:50;;;;;;;0.80;0.40;;;;;;;;;;5066219;28;20056;-61
2022/02/20 12:40:18;;;;;;;2.30;0.43;;;;;;;;;;5039167;28;20118;-61
2022/02/20 12:42:48;;;;;;;0.68;0.40;;;;;;;;;;5055690;28;20039;-60
2022/02/20 12:45:16;;;;;;;2.90;0.50;;;;;;;;;;5052556;28;20067;-61
2022/02/20 12:47:43;;;;;;;2.42;0.68;;;;;;;;;;5050611;28;20056;-61
2022/02/20 12:50:10;;;;;;;2.13;0.60;;;;;;;;;;5062123;28;20058;-61
2022/02/20 12:52:37;;;;;;;1.65;0.32;;;;;;;;;;5055037;28;20072;-61
2022/02/20 12:55:04;;;;;;;2.15;0.50;;;;;;;;;;5063041;28;20523;-61
2022/02/20 12:57:36;;;;;;;0.93;0.30;;;;;;;;;;5056681;28;20052;-61
2022/02/20 13:00:04;;;;;;;0.90;0.30;;;;;;;;;;5059262;28;20036;-61
2022/02/20 13:02:31;;;;;;;1.42;0.40;;;;;;;;;;5055917;28;20416;-61
2022/02/20 13:05:11;;;;;;;2.10;0.90;;;;;;;;;;5061872;28;20772;-61
2022/02/20 13:07:38;;;;;;;0.60;0.30;;;;;;;;;;5055385;28;20060;-61
2022/02/20 13:10:04;;;;;;;2.30;0.52;;;;;;;;;;5058014;28;20111;-60
2022/02/20 13:12:31;;;;;;;1.58;0.40;;;;;;;;;;5061292;28;20071;-61
2022/02/20 13:14:58;;;;;;;1.23;0.50;;;;;;;;;;5060565;28;20040;-62
2022/02/20 13:17:41;;;;;;;6.70;0.60;;;;;;;;;;5051492;28;20063;-62
2022/02/20 13:20:24;;;;;;;2.22;0.68;;;;;;;;;;5059472;28;20128;-62
2022/02/20 13:22:50;;;;;;;2.53;0.70;;;;;;;;;;5055646;28;20090;-61
2022/02/20 13:25:17;;;;;;;3.88;0.77;;;;;;;;;;5059669;28;20079;-61
2022/02/20 13:27:47;;;;;;;1.33;0.60;;;;;;;;;;5049901;28;20048;-61
2022/02/20 13:30:25;;;;;;;1.85;0.75;;;;;;;;;;5057944;28;20024;-62
2022/02/20 13:32:51;;;;;;;1.05;0.50;;;;;;;;;;5053369;28;20032;-61
2022/02/20 13:35:29;;;;;;;1.58;0.50;;;;;;;;;;5053757;28;20063;-61
2022/02/20 13:37:55;;;;;;;0.93;0.40;;;;;;;;;;5063321;28;20066;-60
2022/02/20 13:40:21;;;;;;;1.73;0.50;;;;;;;;;;5052978;28;20694;-61
2022/02/20 13:43:17;;;;;;;3.20;0.65;;;;;;;;;;5061414;28;20036;-61
2022/02/20 13:45:56;;;;;;;2.15;0.50;;;;;;;;;;5043904;28;20071;-62
2022/02/20 13:48:33;;;;;;;2.25;0.52;;;;;;;;;;5061328;28;20036;-61
2022/02/20 13:51:08;;;;;;;0.93;0.55;;;;;;;;;;5045029;28;20136;-61
2022/02/20 13:53:47;;;;;;;4.85;1.08;;;;;;;;;;5063666;28;20115;-61
2022/02/20 13:56:14;;;;;;;2.17;0.60;;;;;;;;;;5049442;28;20075;-61
2022/02/20 13:58:41;;;;;;;3.00;0.55;;;;;;;;;;5062744;28;20040;-61
2022/02/20 14:01:08;;;;;;;0.80;0.50;;;;;;;;;;5056197;28;20036;-61
2022/02/20 14:03:38;;;;;;;1.58;0.32;;;;;;;;;;5061524;28;20069;-61
2022/02/20 14:06:04;;;;;;;1.27;0.65;;;;;;;;;;5052694;28;20489;-61
2022/02/20 14:08:31;;;;;;;1.20;0.50;;;;;;;;;;5058791;28;20186;-60
2022/02/20 14:10:59;;;;;;;3.42;0.85;;;;;;;;;;5060138;28;20037;-61
2022/02/20 14:13:26;;;;;;;2.13;0.28;;;;;;;;;;5060424;28;20763;-62
2022/02/20 14:15:59;;;;;;;2.53;0.47;;;;;;;;;;5058530;28;20060;-61
2022/02/20 14:18:26;;;;;;;0.93;0.32;;;;;;;;;;5061083;28;20055;-61
2022/02/20 14:20:54;;;;;;;1.02;0.43;;;;;;;;;;5058769;28;20032;-61
2022/02/20 14:23:21;;;;;;;1.70;0.40;;;;;;;;;;5046897;28;20033;-62
2022/02/20 14:25:50;;;;;;;0.82;0.30;;;;;;;;;;5039020;28;20041;-61
2022/02/20 14:28:20;;;;;;;1.67;0.50;;;;;;;;;;5060392;28;20650;-61
2022/02/20 14:30:46;;;;;;;2.63;0.50;;;;;;;;;;5053632;28;20039;-61
2022/02/20 14:33:16;;;;;;;2.88;1.00;;;;;;;;;;5063443;28;20131;-62
2022/02/20 14:35:44;;;;;;;2.58;0.57;;;;;;;;;;5056115;28;20040;-62